Thursday, September 20, 2018, 6:59 PM EDT
Back to Local

KJYO, Leesburg / Godfrey

Location: Leesburg, VA, United States Lat: 39.083
Local Time: 6:59 PM EDT (22:59 GMT) Lon: -77.567
Time Zone: US/Eastern Elev: 390 ft

Show me the last for .
Show Decoded

2018-09-20 18:35 METAR KJYO 202235Z AUTO 17006KT 10SM SCT029 SCT039 SCT046 27/22 A3015 RMK AO2 =
2018-09-20 18:15 METAR KJYO 202215Z AUTO 18007KT 10SM SCT032 BKN040 BKN046 28/22 A3015 RMK AO2 =
2018-09-20 17:55 METAR KJYO 202155Z AUTO 17007KT 10SM BKN032 28/22 A3015 RMK AO2 =
2018-09-20 17:35 METAR KJYO 202135Z AUTO 18006KT 10SM SCT032 SCT038 SCT044 28/22 A3015 RMK AO2 =
2018-09-20 17:15 METAR KJYO 202115Z AUTO 19005KT 10SM SCT034 28/21 A3015 RMK AO2 =
2018-09-20 16:55 METAR KJYO 202055Z AUTO 20007KT 10SM SCT034 SCT050 28/22 A3015 RMK AO2 =
2018-09-20 16:35 METAR KJYO 202035Z AUTO 17004KT 10SM BKN050 28/21 A3016 RMK AO2 =
2018-09-20 16:15 METAR KJYO 202015Z AUTO 16006KT 10SM SCT040 BKN050 28/21 A3015 RMK AO2 =
2018-09-20 15:55 METAR KJYO 201955Z AUTO 17006KT 10SM BKN040 BKN055 28/21 A3016 RMK AO2 =
2018-09-20 15:35 METAR KJYO 201935Z AUTO 15004KT 10SM SCT030 OVC042 28/21 A3016 RMK AO2 =
2018-09-20 15:15 METAR KJYO 201915Z AUTO 20005KT 10SM SCT030 OVC042 28/21 A3016 RMK AO2 =
2018-09-20 14:55 METAR KJYO 201855Z AUTO 15007KT 10SM SCT030 BKN039 BKN047 28/21 A3016 RMK AO2 =
2018-09-20 14:35 METAR KJYO 201835Z AUTO 17006KT 10SM SCT030 SCT037 SCT049 27/21 A3018 RMK AO2 =
2018-09-20 14:15 METAR KJYO 201815Z AUTO 16007KT 140V200 10SM BKN028 OVC048 27/21 A3018 RMK AO2 =
2018-09-20 13:55 METAR KJYO 201755Z AUTO 21003KT 10SM BKN028 BKN032 BKN048 27/21 A3019 RMK AO2 =
2018-09-20 13:35 METAR KJYO 201735Z AUTO 00000KT 10SM BKN026 BKN031 26/21 A3019 RMK AO2 =
2018-09-20 13:15 METAR KJYO 201715Z AUTO 00000KT 10SM BKN022 BKN029 25/21 A3020 RMK AO2 =
2018-09-20 12:55 METAR KJYO 201655Z AUTO 00000KT 10SM BKN020 OVC049 25/21 A3020 RMK AO2 =
2018-09-20 12:35 METAR KJYO 201635Z AUTO 00000KT 7SM BKN018 BKN049 25/21 A3021 RMK AO2 =
2018-09-20 12:15 METAR KJYO 201615Z AUTO 00000KT 10SM BKN014 24/21 A3021 RMK AO2 =
2018-09-20 11:55 METAR KJYO 201555Z AUTO 00000KT 7SM BKN014 BKN048 23/20 A3021 RMK AO2 =
2018-09-20 11:35 METAR KJYO 201535Z AUTO 00000KT 7SM BKN012 BKN048 22/20 A3021 RMK AO2 =
2018-09-20 11:15 METAR KJYO 201515Z AUTO 06004KT 7SM BKN008 21/20 A3022 RMK AO2 =
2018-09-20 10:55 METAR KJYO 201455Z AUTO 06004KT 7SM OVC008 21/20 A3022 RMK AO2 =
2018-09-20 10:35 METAR KJYO 201435Z AUTO 13004KT 7SM OVC008 20/20 A3022 RMK AO2 =
2018-09-20 10:10 METAR KJYO 201410Z AUTO 7SM OVC008 20/19 RMK AO2 PNO =
2018-09-20 09:55 METAR KJYO 201355Z AUTO 07005KT 10SM BKN008 20/19 A3021 RMK AO2 =
2018-09-20 09:35 METAR KJYO 201335Z AUTO 07004KT 10SM SCT010 21/18 A3020 RMK AO2 =
2018-09-20 09:15 METAR KJYO 201315Z AUTO 07005KT 10SM TS SCT011 20/18 A3020 RMK AO2 LTG DSNT E
                 AND SE =
2018-09-20 08:55 METAR KJYO 201255Z AUTO RMK TEMPORAIRILY INOPERATIVE =
2018-09-20 08:35 METAR KJYO 201235Z AUTO RMK TEMPORAIRILY INOPERATIVE =
2018-09-20 08:15 METAR KJYO 201215Z AUTO 02003KT 10SM CLR 18/17 A3018 RMK AO2 =
2018-09-20 07:55 METAR KJYO 201155Z AUTO 02003KT 10SM CLR 17/17 A3016 RMK AO2 =
2018-09-20 07:35 METAR KJYO 201135Z AUTO 02003KT 10SM CLR 17/17 A3016 RMK AO2 =
2018-09-20 07:15 METAR KJYO 201115Z AUTO 02003KT 7SM CLR 17/17 A3015 RMK AO2 =
2018-09-20 06:55 METAR KJYO 201055Z AUTO 02004KT 10SM CLR 17/17 A3015 RMK AO2 =
2018-09-20 06:35 METAR KJYO 201035Z AUTO 02003KT 10SM CLR 17/17 A3013 RMK AO2 =
2018-09-20 06:15 METAR KJYO 201015Z AUTO 00000KT 10SM CLR 17/17 A3013 RMK AO2 =
2018-09-20 05:55 METAR KJYO 200955Z AUTO 04003KT 10SM CLR 17/17 A3012 RMK AO2 =
2018-09-20 05:35 METAR KJYO 200935Z AUTO 00000KT 10SM CLR 17/17 A3011 RMK AO2 =
2018-09-20 05:15 METAR KJYO 200915Z AUTO 03003KT 10SM CLR 18/18 A3011 RMK AO2 =
2018-09-20 04:55 METAR KJYO 200855Z AUTO 03004KT 10SM CLR 17/17 A3010 RMK AO2 =
2018-09-20 04:35 METAR KJYO 200835Z AUTO 01004KT 10SM CLR 17/17 A3009 RMK AO2 =
2018-09-20 04:15 METAR KJYO 200815Z AUTO 00000KT 7SM CLR 17/17 A3008 RMK AO2 =
2018-09-20 03:55 METAR KJYO 200755Z AUTO 00000KT 7SM CLR 17/17 A3008 RMK AO2 =
2018-09-20 03:35 METAR KJYO 200735Z AUTO 00000KT 10SM CLR 17/17 A3008 RMK AO2 =
2018-09-20 03:15 METAR KJYO 200715Z AUTO 00000KT 10SM CLR 17/17 A3008 RMK AO2 =
2018-09-20 02:55 METAR KJYO 200655Z AUTO 00000KT 10SM CLR 17/17 A3008 RMK AO2 =
2018-09-20 02:35 METAR KJYO 200635Z AUTO 00000KT 10SM CLR 18/18 A3008 RMK AO2 =
2018-09-20 02:15 METAR KJYO 200615Z AUTO 01003KT 10SM CLR 20/20 A3008 RMK AO2 =
2018-09-20 01:55 METAR KJYO 200555Z AUTO 02003KT 10SM CLR 20/19 A3008 RMK AO2 =
2018-09-20 01:35 METAR KJYO 200535Z AUTO 00000KT 10SM CLR 19/19 A3008 RMK AO2 =
2018-09-20 01:15 METAR KJYO 200515Z AUTO 00000KT 10SM CLR 19/19 A3008 RMK AO2 =
2018-09-20 00:55 METAR KJYO 200455Z AUTO 00000KT 10SM CLR 20/19 A3008 RMK AO2 =
2018-09-20 00:35 METAR KJYO 200435Z AUTO 00000KT 10SM CLR 20/20 A3008 RMK AO2 =
2018-09-20 00:15 METAR KJYO 200415Z AUTO 34003KT 10SM CLR 20/19 A3008 RMK AO2 =
2018-09-19 23:55 METAR KJYO 200355Z AUTO 00000KT 10SM CLR 21/20 A3008 RMK AO2 =
2018-09-19 23:35 METAR KJYO 200335Z AUTO 00000KT 10SM CLR 20/19 A3007 RMK AO2 =
2018-09-19 23:15 METAR KJYO 200315Z AUTO 00000KT 10SM CLR 20/20 A3006 RMK AO2 =
2018-09-19 22:55 METAR KJYO 200255Z AUTO 00000KT 10SM CLR 19/19 A3006 RMK AO2 =
2018-09-19 22:35 METAR KJYO 200235Z AUTO 00000KT 10SM CLR 20/20 A3006 RMK AO2 =
2018-09-19 22:15 METAR KJYO 200215Z AUTO 00000KT 10SM CLR 21/20 A3005 RMK AO2 =
2018-09-19 21:55 METAR KJYO 200155Z AUTO 00000KT 10SM CLR 22/20 A3004 RMK AO2 =
2018-09-19 21:35 METAR KJYO 200135Z AUTO 00000KT 10SM CLR 21/20 A3004 RMK AO2 =
2018-09-19 21:15 METAR KJYO 200115Z AUTO 00000KT 10SM CLR 22/20 A3003 RMK AO2 =
2018-09-19 20:55 METAR KJYO 200055Z AUTO 00000KT 10SM CLR 24/20 A3002 RMK AO2 =
2018-09-19 20:35 METAR KJYO 200035Z AUTO 00000KT 10SM CLR 23/21 A3002 RMK AO2 =
2018-09-19 20:15 METAR KJYO 200015Z AUTO 00000KT 10SM CLR 26/20 A3001 RMK AO2 =
2018-09-19 19:55 METAR KJYO 192355Z AUTO 00000KT 10SM CLR 26/20 A3000 RMK AO2 =
2018-09-19 19:35 METAR KJYO 192335Z AUTO 01003KT 10SM CLR 26/20 A2999 RMK AO2 =
2018-09-19 19:15 METAR KJYO 192315Z AUTO 03003KT 10SM CLR 27/18 A2998 RMK AO2 =

Support USWX by starting your Amazon purchase here.